Time;durP1;ratioP1;P1;durP2;ratioP2;P2;SDS_P1;SDS_P2;PMS_P1;PMS_P2;Temp;Humidity;BMP_temperature;BMP_pressure;BME280_temperature;BME280_humidity;BME280_pressure;Samples;Min_cycle;Max_cycle;Signal;HPM_P1;HPM_P2
2023/09/30 00:01:47;;;;;;;11.23;2.63;;;11.80;99.90;;;;;;4959566;29;20079;-89
2023/09/30 00:04:14;;;;;;;12.82;3.45;;;11.80;99.90;;;;;;4959320;29;20102;-89
2023/09/30 00:06:41;;;;;;;12.85;2.85;;;11.80;99.90;;;;;;4950127;29;20044;-89
2023/09/30 00:09:07;;;;;;;10.50;2.85;;;11.80;99.90;;;;;;4956905;29;20484;-89
2023/09/30 00:11:34;;;;;;;13.18;3.42;;;11.80;99.90;;;;;;4959202;29;20120;-89
2023/09/30 00:14:01;;;;;;;12.02;2.70;;;11.80;99.90;;;;;;4947228;29;20035;-89
2023/09/30 00:16:28;;;;;;;13.60;2.60;;;11.80;99.90;;;;;;4948612;29;20436;-89
2023/09/30 00:18:54;;;;;;;9.82;3.03;;;11.80;99.90;;;;;;4973836;29;20046;-88
2023/09/30 00:21:21;;;;;;;13.15;2.90;;;11.80;99.90;;;;;;4959240;29;20472;-89
2023/09/30 00:23:47;;;;;;;12.82;2.70;;;11.80;99.90;;;;;;4956076;29;20040;-89
2023/09/30 00:26:14;;;;;;;14.00;2.97;;;11.70;99.90;;;;;;4947665;29;20416;-89
2023/09/30 00:28:41;;;;;;;8.30;2.17;;;11.70;99.90;;;;;;4974015;29;20046;-89
2023/09/30 00:31:11;;;;;;;12.88;2.70;;;11.70;99.90;;;;;;4959336;29;20035;-89
2023/09/30 00:33:38;;;;;;;7.20;2.33;;;11.70;99.90;;;;;;4971482;29;20051;-89
2023/09/30 00:36:09;;;;;;;11.00;2.70;;;11.70;99.90;;;;;;4955999;29;20052;-89
2023/09/30 00:38:36;;;;;;;14.75;3.10;;;11.70;99.90;;;;;;4947656;29;20035;-87
2023/09/30 00:41:03;;;;;;;13.32;2.78;;;11.80;99.90;;;;;;4958595;29;20419;-89
2023/09/30 00:43:31;;;;;;;10.98;2.92;;;11.70;99.90;;;;;;4955801;29;20047;-88
2023/09/30 00:46:26;;;;;;;11.93;2.72;;;11.70;99.90;;;;;;4969390;29;20055;-89
2023/09/30 00:48:55;;;;;;;13.97;3.30;;;11.70;99.90;;;;;;4946313;29;20040;-89
2023/09/30 00:51:23;;;;;;;13.75;2.67;;;11.70;99.90;;;;;;4946843;29;20114;-89
2023/09/30 00:53:54;;;;;;;12.43;2.55;;;11.60;99.90;;;;;;4958267;29;21019;-89
2023/09/30 00:56:25;;;;;;;9.75;2.70;;;11.70;99.90;;;;;;4958923;29;20050;-89
2023/09/30 00:58:52;;;;;;;14.07;2.95;;;11.70;99.90;;;;;;4958608;29;20527;-89
2023/09/30 01:01:20;;;;;;;8.85;2.80;;;11.70;99.90;;;;;;4949333;29;20131;-89
2023/09/30 01:03:47;;;;;;;10.73;2.60;;;11.60;99.90;;;;;;4958899;29;20043;-89
2023/09/30 01:06:14;;;;;;;10.80;2.42;;;11.70;99.90;;;;;;4948529;29;20039;-89
2023/09/30 01:08:41;;;;;;;12.30;2.50;;;11.60;99.90;;;;;;4983481;29;20051;-89
2023/09/30 01:11:09;;;;;;;12.20;2.70;;;11.60;99.90;;;;;;4949404;29;20043;-90
2023/09/30 01:13:37;;;;;;;14.65;2.60;;;11.60;99.90;;;;;;4958080;29;20051;-88
2023/09/30 01:16:05;;;;;;;14.57;2.72;;;11.50;99.90;;;;;;4958428;29;20121;-89
2023/09/30 01:18:32;;;;;;;11.38;2.92;;;11.50;99.90;;;;;;4958524;29;20039;-89
2023/09/30 01:21:18;;;;;;;8.85;2.15;;;11.50;99.90;;;;;;4957544;29;20050;-88
2023/09/30 01:23:46;;;;;;;11.98;2.42;;;11.50;99.90;;;;;;4963218;29;20488;-89
2023/09/30 01:26:14;;;;;;;12.55;2.50;;;11.40;99.90;;;;;;4954937;29;20039;-89
2023/09/30 01:28:41;;;;;;;10.75;2.40;;;11.50;99.90;;;;;;4969677;29;20055;-89
2023/09/30 01:31:08;;;;;;;12.20;2.60;;;11.40;99.90;;;;;;4939107;29;20039;-89
2023/09/30 01:33:35;;;;;;;14.77;3.08;;;11.50;99.90;;;;;;4938878;29;20052;-89
2023/09/30 01:36:01;;;;;;;10.00;2.47;;;11.50;99.90;;;;;;4942223;29;20044;-89
2023/09/30 01:38:28;;;;;;;14.63;3.05;;;11.50;99.90;;;;;;4938523;29;20066;-89
2023/09/30 01:40:54;;;;;;;11.43;3.05;;;11.50;99.90;;;;;;4944983;29;20044;-89
2023/09/30 01:43:21;;;;;;;11.48;2.85;;;11.50;99.90;;;;;;4942482;29;20071;-89
2023/09/30 01:45:48;;;;;;;15.02;2.97;;;11.50;99.90;;;;;;4970418;29;20082;-89
2023/09/30 01:48:14;;;;;;;14.23;2.60;;;11.50;99.90;;;;;;4946940;29;20044;-89
2023/09/30 01:50:41;;;;;;;11.95;2.38;;;11.50;99.90;;;;;;4947414;29;20048;-89
2023/09/30 01:53:09;;;;;;;14.90;3.30;;;11.50;99.90;;;;;;4953881;29;20043;-89
2023/09/30 01:55:36;;;;;;;15.07;2.80;;;11.50;99.90;;;;;;4938545;29;20076;-89
2023/09/30 01:58:03;;;;;;;11.32;2.45;;;11.50;99.90;;;;;;4945233;29;20501;-89
2023/09/30 02:00:30;;;;;;;9.90;2.85;;;11.50;99.90;;;;;;4934812;29;20054;-89
2023/09/30 02:02:57;;;;;;;12.75;2.75;;;11.50;99.90;;;;;;4954146;29;20047;-89
2023/09/30 02:05:24;;;;;;;12.00;3.13;;;11.50;99.90;;;;;;4941240;29;20420;-89
2023/09/30 02:07:50;;;;;;;14.15;2.70;;;11.50;99.90;;;;;;4943992;29;20055;-88
2023/09/30 02:10:21;;;;;;;13.73;2.65;;;11.40;99.90;;;;;;4938791;29;20103;-89
2023/09/30 02:12:47;;;;;;;9.07;2.85;;;11.50;99.90;;;;;;4962409;29;20121;-89
2023/09/30 02:15:16;;;;;;;11.23;3.03;;;11.50;99.90;;;;;;4957391;29;20094;-88
2023/09/30 02:17:45;;;;;;;9.85;2.65;;;11.50;99.90;;;;;;4950281;29;20058;-89
2023/09/30 02:20:15;;;;;;;10.80;2.58;;;11.80;99.90;;;;;;4931837;29;20047;-89
2023/09/30 02:22:43;;;;;;;7.68;2.40;;;11.50;99.90;;;;;;4937746;29;20039;-88
2023/09/30 02:25:12;;;;;;;12.63;3.00;;;11.50;99.90;;;;;;4953472;29;20054;-88
2023/09/30 02:27:42;;;;;;;13.52;2.55;;;11.50;99.90;;;;;;4944264;29;20078;-88
2023/09/30 02:30:10;;;;;;;11.90;2.97;;;11.40;99.90;;;;;;4948086;29;20072;-89
2023/09/30 02:32:40;;;;;;;14.48;2.78;;;11.50;99.90;;;;;;4942158;29;20036;-89
2023/09/30 02:35:08;;;;;;;12.80;3.22;;;11.40;99.90;;;;;;4936723;29;20481;-88
2023/09/30 02:37:35;;;;;;;8.18;2.78;;;11.40;99.90;;;;;;4954045;29;20036;-88
2023/09/30 02:40:09;;;;;;;11.27;2.85;;;11.40;99.90;;;;;;4937748;29;20051;-88
2023/09/30 02:42:39;;;;;;;14.90;2.50;;;11.40;99.90;;;;;;4937513;29;20047;-88
2023/09/30 02:45:07;;;;;;;8.07;2.70;;;11.40;99.90;;;;;;4937791;29;20082;-88
2023/09/30 02:47:35;;;;;;;12.38;3.05;;;11.50;99.90;;;;;;4935487;29;20412;-89
2023/09/30 02:50:03;;;;;;;11.35;2.63;;;11.50;99.90;;;;;;4939469;29;20454;-87
2023/09/30 02:52:31;;;;;;;10.98;3.10;;;11.50;99.90;;;;;;4934127;29;20040;-89
2023/09/30 02:54:58;;;;;;;12.18;3.38;;;11.40;99.90;;;;;;4928084;29;20052;-89
2023/09/30 02:57:27;;;;;;;10.63;2.65;;;11.50;99.90;;;;;;4950694;29;20488;-88
2023/09/30 02:59:54;;;;;;;11.25;2.58;;;11.50;99.90;;;;;;4937786;29;20113;-88
2023/09/30 03:02:21;;;;;;;9.43;2.70;;;11.50;99.90;;;;;;4937500;29;20036;-89
2023/09/30 03:04:50;;;;;;;15.98;2.90;;;11.50;99.90;;;;;;4936925;29;20527;-88
2023/09/30 03:07:19;;;;;;;11.38;2.67;;;11.50;99.90;;;;;;4932361;29;20079;-89
2023/09/30 03:09:46;;;;;;;10.45;2.63;;;11.30;99.90;;;;;;4946499;29;20127;-89
2023/09/30 03:12:13;;;;;;;9.43;2.70;;;11.40;99.90;;;;;;4931149;29;20044;-88
2023/09/30 03:14:40;;;;;;;9.20;2.60;;;11.40;99.90;;;;;;4931267;29;20043;-88
2023/09/30 03:17:11;;;;;;;9.25;2.47;;;11.40;99.90;;;;;;4947948;29;20123;-88
2023/09/30 03:19:38;;;;;;;12.25;2.95;;;11.40;99.90;;;;;;4932187;29;20048;-88
2023/09/30 03:22:05;;;;;;;9.43;2.60;;;11.50;99.90;;;;;;4933370;29;20071;-88
2023/09/30 03:24:32;;;;;;;12.70;2.83;;;11.50;99.90;;;;;;4944826;29;20071;-88
2023/09/30 03:26:59;;;;;;;11.90;2.90;;;11.50;99.90;;;;;;4937709;29;20042;-88
2023/09/30 03:29:26;;;;;;;12.63;2.80;;;11.50;99.90;;;;;;4937449;29;20147;-89
2023/09/30 03:31:52;;;;;;;14.27;2.85;;;11.50;99.90;;;;;;4952888;29;20046;-89
2023/09/30 03:34:20;;;;;;;13.65;3.50;;;11.50;99.90;;;;;;4948588;29;20486;-88
2023/09/30 03:36:46;;;;;;;9.88;2.67;;;11.50;99.90;;;;;;4975488;29;20046;-88
2023/09/30 03:39:15;;;;;;;12.85;2.50;;;11.40;99.90;;;;;;4960020;29;20043;-88
2023/09/30 03:41:42;;;;;;;7.32;2.40;;;11.40;99.90;;;;;;4953913;29;20047;-89
2023/09/30 03:44:09;;;;;;;9.05;2.97;;;11.40;99.90;;;;;;4985919;29;20103;-88
2023/09/30 03:46:35;;;;;;;10.57;3.05;;;11.40;99.90;;;;;;4968464;29;20044;-89
2023/09/30 03:49:02;;;;;;;12.48;2.95;;;11.40;99.90;;;;;;4969937;29;20123;-88
2023/09/30 03:51:29;;;;;;;13.15;3.10;;;11.30;99.90;;;;;;4959710;29;20046;-88
2023/09/30 03:53:55;;;;;;;9.65;2.90;;;11.30;99.90;;;;;;4959792;29;20404;-88
2023/09/30 03:56:22;;;;;;;13.80;3.28;;;11.40;99.90;;;;;;4967658;29;20050;-88
2023/09/30 03:58:49;;;;;;;8.50;2.78;;;11.40;99.90;;;;;;4986881;29;20764;-89
2023/09/30 04:01:19;;;;;;;9.63;2.78;;;11.30;99.90;;;;;;4951171;29;20046;-89
2023/09/30 04:03:46;;;;;;;11.13;3.20;;;11.50;99.90;;;;;;4955792;29;20039;-89
2023/09/30 04:06:12;;;;;;;8.98;2.70;;;11.30;99.90;;;;;;4956468;29;20055;-88
2023/09/30 04:08:39;;;;;;;7.13;2.67;;;11.30;99.90;;;;;;4968736;29;20044;-89
2023/09/30 04:11:06;;;;;;;14.93;2.80;;;11.30;99.90;;;;;;4966686;29;20035;-89
2023/09/30 04:13:33;;;;;;;9.40;3.42;;;11.50;99.90;;;;;;4959400;29;20049;-89
2023/09/30 04:15:59;;;;;;;7.95;2.83;;;11.30;99.90;;;;;;4955916;29;20400;-89
2023/09/30 04:18:26;;;;;;;10.70;3.03;;;11.20;99.90;;;;;;4985399;29;20484;-89
2023/09/30 04:20:53;;;;;;;11.38;2.95;;;11.20;99.90;;;;;;4948345;29;20047;-89
2023/09/30 04:23:22;;;;;;;9.73;2.88;;;11.20;99.90;;;;;;4957900;29;20031;-88
2023/09/30 04:25:49;;;;;;;10.27;2.92;;;11.20;99.90;;;;;;4976948;29;20032;-89
2023/09/30 04:28:20;;;;;;;14.40;3.40;;;11.40;99.90;;;;;;4970464;29;20130;-88
2023/09/30 04:30:51;;;;;;;16.95;3.20;;;11.20;99.90;;;;;;4949884;29;20035;-88
2023/09/30 04:33:17;;;;;;;8.27;3.15;;;11.20;99.90;;;;;;4984525;29;20071;-88
2023/09/30 04:35:45;;;;;;;11.70;3.35;;;11.20;99.90;;;;;;4959224;29;20059;-88
2023/09/30 04:38:13;;;;;;;12.68;3.10;;;11.20;99.90;;;;;;4946377;29;20175;-88
2023/09/30 04:40:39;;;;;;;9.40;3.17;;;11.20;99.90;;;;;;4959121;29;20485;-88
2023/09/30 04:43:06;;;;;;;10.95;3.15;;;11.20;99.90;;;;;;4955300;29;20098;-89
2023/09/30 04:45:33;;;;;;;12.43;3.13;;;11.20;99.90;;;;;;4965083;29;20043;-88
2023/09/30 04:48:01;;;;;;;10.40;3.08;;;11.20;99.90;;;;;;4951991;29;20114;-88
2023/09/30 04:50:30;;;;;;;10.10;3.17;;;11.20;99.90;;;;;;4951031;29;20047;-88
2023/09/30 04:52:57;;;;;;;9.27;3.30;;;11.20;99.90;;;;;;4959019;29;20114;-88
2023/09/30 04:55:24;;;;;;;13.43;3.65;;;11.20;99.90;;;;;;4958375;29;20047;-88
2023/09/30 04:57:51;;;;;;;10.00;3.38;;;11.10;99.90;;;;;;4987262;29;20046;-89
2023/09/30 05:00:24;;;;;;;12.70;3.50;;;11.10;99.90;;;;;;4958247;29;20035;-88
2023/09/30 05:02:58;;;;;;;11.55;3.22;;;11.10;99.90;;;;;;4958677;29;20039;-88
2023/09/30 05:05:25;;;;;;;9.32;3.20;;;11.10;99.90;;;;;;4958028;29;20093;-89
2023/09/30 05:07:52;;;;;;;9.85;3.20;;;11.30;99.90;;;;;;4958118;29;20078;-89
2023/09/30 05:10:19;;;;;;;6.57;3.33;;;11.10;99.90;;;;;;4957958;29;20035;-89
2023/09/30 05:12:45;;;;;;;9.65;2.95;;;11.10;99.90;;;;;;4970759;29;20047;-89
2023/09/30 05:15:15;;;;;;;11.10;3.70;;;11.10;99.90;;;;;;4954770;29;20043;-88
2023/09/30 05:17:45;;;;;;;11.18;3.67;;;11.10;99.90;;;;;;4973433;29;20050;-88
2023/09/30 05:20:12;;;;;;;11.35;3.70;;;11.10;99.90;;;;;;4940205;29;20451;-88
2023/09/30 05:22:45;;;;;;;9.10;3.75;;;11.10;99.90;;;;;;4951003;29;20126;-88
2023/09/30 05:25:16;;;;;;;17.73;4.13;;;11.10;99.90;;;;;;4957119;29;20050;-89
2023/09/30 05:27:43;;;;;;;10.85;4.07;;;11.10;99.90;;;;;;4957718;29;20051;-88
2023/09/30 05:30:15;;;;;;;8.82;3.88;;;11.10;99.90;;;;;;4953530;29;20044;-88
2023/09/30 05:32:42;;;;;;;11.15;3.95;;;11.10;99.90;;;;;;4964334;29;20047;-89
2023/09/30 05:35:12;;;;;;;11.90;4.00;;;11.20;99.90;;;;;;4973417;29;20039;-89
2023/09/30 05:37:43;;;;;;;9.10;3.50;;;11.10;99.90;;;;;;4957454;29;20492;-89
2023/09/30 05:40:24;;;;;;;9.93;3.55;;;11.10;99.90;;;;;;4945209;29;20031;-88
2023/09/30 05:42:53;;;;;;;13.55;3.80;;;11.10;99.90;;;;;;4957653;29;20453;-89
2023/09/30 05:45:20;;;;;;;11.98;3.90;;;11.20;99.90;;;;;;4957085;29;20070;-88
2023/09/30 05:47:47;;;;;;;11.55;4.13;;;11.10;99.90;;;;;;4957802;29;20051;-88
2023/09/30 05:50:16;;;;;;;9.32;3.88;;;11.10;99.90;;;;;;4957450;29;20048;-88
2023/09/30 05:52:44;;;;;;;19.73;4.15;;;11.10;99.90;;;;;;4954424;29;20067;-89
2023/09/30 05:55:11;;;;;;;9.05;3.65;;;11.10;99.90;;;;;;4957536;29;20133;-89
2023/09/30 05:57:38;;;;;;;19.38;4.03;;;11.10;99.90;;;;;;4944557;29;20183;-88
2023/09/30 06:00:28;;;;;;;11.02;3.70;;;11.10;99.90;;;;;;4945403;29;20519;-88
2023/09/30 06:02:55;;;;;;;16.73;4.30;;;11.10;99.90;;;;;;4962907;29;20431;-89
2023/09/30 06:05:30;;;;;;;12.70;4.05;;;11.10;99.90;;;;;;4972709;29;20053;-88
2023/09/30 06:07:56;;;;;;;12.82;3.60;;;11.10;99.90;;;;;;4957553;29;20043;-88
2023/09/30 06:10:23;;;;;;;10.32;3.42;;;11.10;99.90;;;;;;4957229;29;20125;-88
2023/09/30 06:12:54;;;;;;;10.38;3.70;;;11.10;99.90;;;;;;4956631;29;20039;-89
2023/09/30 06:15:25;;;;;;;15.05;4.47;;;11.20;99.90;;;;;;4972067;29;20042;-88
2023/09/30 06:17:56;;;;;;;12.63;4.20;;;11.10;99.90;;;;;;4967466;29;20047;-89
2023/09/30 06:20:26;;;;;;;9.50;3.97;;;11.20;99.90;;;;;;4953781;29;20047;-89
2023/09/30 06:22:55;;;;;;;13.45;4.72;;;11.20;99.90;;;;;;4948223;29;20053;-88
2023/09/30 06:25:27;;;;;;;13.32;3.83;;;11.20;99.90;;;;;;4953856;29;20051;-88
2023/09/30 06:27:54;;;;;;;12.05;3.92;;;11.20;99.90;;;;;;4956431;29;20114;-88
2023/09/30 06:30:21;;;;;;;11.50;4.00;;;11.20;99.90;;;;;;4943706;29;20051;-88
2023/09/30 06:32:48;;;;;;;13.23;3.97;;;11.20;99.90;;;;;;4956299;29;20035;-87
2023/09/30 06:35:15;;;;;;;12.25;4.13;;;11.30;99.90;;;;;;4959318;29;20055;-87
2023/09/30 06:37:42;;;;;;;8.60;3.80;;;11.20;99.90;;;;;;4955945;29;20061;-87
2023/09/30 06:40:12;;;;;;;10.55;4.28;;;11.30;99.90;;;;;;4956368;29;20134;-87
2023/09/30 06:42:42;;;;;;;11.15;4.07;;;11.30;99.90;;;;;;4954519;29;20881;-87
2023/09/30 06:45:09;;;;;;;12.48;4.13;;;11.30;99.90;;;;;;4952835;29;20457;-87
2023/09/30 06:47:37;;;;;;;14.20;4.68;;;11.40;99.90;;;;;;4964503;29;20881;-87
2023/09/30 06:50:09;;;;;;;13.00;4.38;;;11.80;99.90;;;;;;4952720;29;20099;-87
2023/09/30 06:52:37;;;;;;;12.98;4.30;;;11.40;99.90;;;;;;4950005;29;20051;-87
2023/09/30 06:55:05;;;;;;;13.95;4.20;;;11.50;99.90;;;;;;4971408;29;20039;-87
2023/09/30 06:57:36;;;;;;;15.98;4.90;;;11.50;99.90;;;;;;4952522;29;20039;-87
2023/09/30 07:00:11;;;;;;;17.25;4.72;;;11.60;99.90;;;;;;4971663;29;20031;-87
2023/09/30 07:02:38;;;;;;;12.60;4.43;;;11.60;99.90;;;;;;4953734;29;20044;-87
2023/09/30 07:05:09;;;;;;;12.93;4.53;;;11.60;99.90;;;;;;4954030;29;20043;-87
2023/09/30 07:07:36;;;;;;;11.93;4.20;;;11.70;99.90;;;;;;4958375;29;20043;-87
2023/09/30 07:10:05;;;;;;;16.30;4.68;;;11.70;99.90;;;;;;4941009;29;20047;-87
2023/09/30 07:12:35;;;;;;;16.70;5.25;;;11.80;99.90;;;;;;4949950;29;20050;-88
2023/09/30 07:15:03;;;;;;;14.52;5.38;;;11.80;99.90;;;;;;4956518;29;20031;-87
2023/09/30 07:17:30;;;;;;;15.55;4.78;;;11.90;99.90;;;;;;4968929;29;20046;-87
2023/09/30 07:19:57;;;;;;;15.10;4.75;;;11.90;99.90;;;;;;4968578;29;20048;-87
2023/09/30 07:22:23;;;;;;;12.32;4.53;;;12.00;99.90;;;;;;4953249;29;20043;-87
2023/09/30 07:24:50;;;;;;;16.02;5.55;;;12.00;99.90;;;;;;4953061;29;20056;-87
2023/09/30 07:27:17;;;;;;;18.58;5.28;;;12.20;99.90;;;;;;4958676;29;20042;-87
2023/09/30 07:29:44;;;;;;;13.95;5.40;;;12.20;99.90;;;;;;4949613;29;20079;-87
2023/09/30 07:32:11;;;;;;;14.30;5.40;;;12.20;99.90;;;;;;4952757;29;20035;-87
2023/09/30 07:34:38;;;;;;;16.50;5.50;;;12.30;99.90;;;;;;4955806;29;20047;-87
2023/09/30 07:37:05;;;;;;;16.88;5.30;;;12.30;99.90;;;;;;4970379;29;20049;-88
2023/09/30 07:39:31;;;;;;;13.25;5.03;;;12.40;99.90;;;;;;4946033;29;20127;-86
2023/09/30 07:41:58;;;;;;;13.50;5.43;;;12.70;99.90;;;;;;4966812;29;20062;-88
2023/09/30 07:44:24;;;;;;;19.20;5.60;;;12.50;99.90;;;;;;4950316;29;20039;-87
2023/09/30 07:46:51;;;;;;;13.52;6.00;;;12.60;99.90;;;;;;4967263;29;20040;-87
2023/09/30 07:49:18;;;;;;;17.83;5.57;;;12.70;99.90;;;;;;4953531;29;20054;-87
2023/09/30 07:51:48;;;;;;;14.07;5.65;;;12.70;99.90;;;;;;4953194;29;20073;-88
2023/09/30 07:54:17;;;;;;;17.48;5.72;;;12.80;99.90;;;;;;4965105;29;20050;-88
2023/09/30 07:56:43;;;;;;;11.50;5.18;;;12.80;99.90;;;;;;4955440;29;20118;-87
2023/09/30 07:59:10;;;;;;;14.50;5.80;;;13.00;99.90;;;;;;4960635;29;20191;-87
2023/09/30 08:01:37;;;;;;;14.15;5.45;;;13.00;99.90;;;;;;4951793;29;20480;-88
2023/09/30 08:04:04;;;;;;;12.43;5.50;;;13.10;99.90;;;;;;4965005;29;20058;-88
2023/09/30 08:06:31;;;;;;;14.55;5.53;;;13.20;99.90;;;;;;4971648;29;20050;-87
2023/09/30 08:08:57;;;;;;;13.30;5.05;;;13.20;99.90;;;;;;4958019;29;20062;-88
2023/09/30 08:11:27;;;;;;;20.98;5.82;;;13.30;99.90;;;;;;4946278;29;20091;-88
2023/09/30 08:13:54;;;;;;;20.85;6.20;;;13.40;99.90;;;;;;4943292;29;20043;-88
2023/09/30 08:16:21;;;;;;;13.25;5.57;;;13.50;99.90;;;;;;4949830;29;20043;-87
2023/09/30 08:18:48;;;;;;;13.48;5.18;;;13.50;99.90;;;;;;4947151;29;20405;-87
2023/09/30 08:21:15;;;;;;;15.25;5.28;;;13.70;99.90;;;;;;4958222;29;20074;-89
2023/09/30 08:23:42;;;;;;;13.20;5.00;;;13.80;99.90;;;;;;4955044;29;20077;-89
2023/09/30 08:26:09;;;;;;;14.75;5.38;;;13.80;99.90;;;;;;4948141;29;20480;-87
2023/09/30 08:28:36;;;;;;;12.13;5.18;;;13.90;99.90;;;;;;4968573;29;20119;-89
2023/09/30 08:31:04;;;;;;;12.63;4.72;;;14.00;99.90;;;;;;4980517;29;20043;-89
2023/09/30 08:33:32;;;;;;;12.85;5.35;;;14.10;99.90;;;;;;4952348;29;20126;-89
2023/09/30 08:36:07;;;;;;;12.77;5.60;;;14.20;99.90;;;;;;4954609;29;20052;-88
2023/09/30 08:38:35;;;;;;;;;;;14.30;99.90;;;;;;4965993;29;20125;-89
2023/09/30 08:41:02;;;;;;;12.00;4.78;;;14.40;99.90;;;;;;4974158;29;19922;-88
2023/09/30 08:43:30;;;;;;;11.05;5.10;;;14.60;99.90;;;;;;4947819;29;20054;-87
2023/09/30 08:45:58;;;;;;;14.30;5.28;;;14.70;99.90;;;;;;4969731;29;20098;-89
2023/09/30 08:48:27;;;;;;;14.40;5.35;;;14.80;99.90;;;;;;4958164;29;20417;-90
2023/09/30 08:50:57;;;;;;;13.63;5.05;;;14.80;99.90;;;;;;4957759;29;20138;-90
2023/09/30 08:53:24;;;;;;;12.45;4.72;;;15.00;99.90;;;;;;4947816;29;20048;-89
2023/09/30 08:55:55;;;;;;;15.65;4.82;;;15.10;99.90;;;;;;4957424;29;20122;-89
2023/09/30 08:58:32;;;;;;;8.45;4.05;;;15.20;99.90;;;;;;4947745;29;20040;-89
2023/09/30 09:00:59;;;;;;;11.13;4.18;;;15.20;99.90;;;;;;4967514;29;20510;-88
2023/09/30 09:03:29;;;;;;;15.55;4.55;;;15.30;99.90;;;;;;4967010;29;20078;-90
2023/09/30 09:05:56;;;;;;;11.98;4.05;;;15.40;99.90;;;;;;4949724;29;20044;-89
2023/09/30 09:08:24;;;;;;;13.90;4.32;;;15.60;99.90;;;;;;4956524;29;20047;-88
2023/09/30 09:10:57;;;;;;;14.27;3.50;;;15.70;99.90;;;;;;4955636;29;20051;-88
2023/09/30 09:13:25;;;;;;;13.38;3.78;;;15.70;99.90;;;;;;4952835;29;20102;-87
2023/09/30 09:16:10;;;;;;;13.10;3.47;;;15.80;99.90;;;;;;4946601;29;20035;-87
2023/09/30 09:18:37;;;;;;;14.82;3.70;;;15.90;99.90;;;;;;4958771;29;20488;-88
2023/09/30 09:21:15;;;;;;;12.68;3.83;;;16.00;99.90;;;;;;4954826;29;20043;-85
2023/09/30 09:23:44;;;;;;;11.77;3.10;;;16.00;99.90;;;;;;4966590;29;20040;-89
2023/09/30 09:26:34;;;;;;;10.55;3.00;;;16.20;99.90;;;;;;4938593;29;20044;-89
2023/09/30 09:29:04;;;;;;;11.23;3.22;;;16.20;99.90;;;;;;4973529;29;20177;-89
2023/09/30 09:31:34;;;;;;;17.23;3.22;;;16.30;99.90;;;;;;4970668;29;20035;-89
2023/09/30 09:34:13;;;;;;;16.58;3.05;;;16.40;99.90;;;;;;4943989;29;20055;-89
2023/09/30 09:36:44;;;;;;;12.35;3.28;;;16.50;99.90;;;;;;4937820;29;20044;-89
2023/09/30 09:39:16;;;;;;;11.00;2.83;;;16.60;99.90;;;;;;4925849;29;20425;-89
2023/09/30 09:41:53;;;;;;;11.57;2.60;;;16.70;99.90;;;;;;4950944;29;20099;-89
2023/09/30 09:44:25;;;;;;;11.80;2.88;;;16.70;99.90;;;;;;4933037;29;20040;-89
2023/09/30 09:46:51;;;;;;;10.23;2.35;;;16.80;99.90;;;;;;4937544;29;20040;-89
2023/09/30 09:49:19;;;;;;;8.10;2.47;;;16.80;99.90;;;;;;4922096;29;20488;-90
2023/09/30 09:51:47;;;;;;;12.02;2.72;;;16.90;99.90;;;;;;4940795;29;20051;-89
2023/09/30 09:54:15;;;;;;;9.85;2.22;;;16.90;99.90;;;;;;4919436;29;20070;-89
2023/09/30 09:56:44;;;;;;;13.60;2.45;;;16.80;99.90;;;;;;4934425;29;20044;-89
2023/09/30 09:59:14;;;;;;;9.32;2.47;;;16.90;99.90;;;;;;4948693;29;20046;-89
2023/09/30 10:01:42;;;;;;;8.02;2.00;;;16.90;99.90;;;;;;4959106;29;20520;-89
2023/09/30 10:04:11;;;;;;;12.75;2.80;;;17.00;99.90;;;;;;4953281;29;20091;-89
2023/09/30 10:06:40;;;;;;;12.63;2.15;;;17.00;99.90;;;;;;4937837;29;20043;-90
2023/09/30 10:09:10;;;;;;;9.30;2.00;;;17.00;99.90;;;;;;4942053;29;20048;-89
2023/09/30 10:11:39;;;;;;;6.60;2.10;;;17.10;99.90;;;;;;4932842;29;20042;-91
2023/09/30 10:14:12;;;;;;;8.70;1.80;;;17.10;99.90;;;;;;4934188;29;20133;-89
2023/09/30 10:16:41;;;;;;;6.78;1.73;;;17.20;99.90;;;;;;4937739;29;20485;-90
2023/09/30 10:19:14;;;;;;;9.77;2.20;;;17.40;99.90;;;;;;4934215;29;20075;-90
2023/09/30 10:22:16;;;;;;;8.52;2.03;;;17.50;99.90;;;;;;4944899;29;20500;-91
2023/09/30 10:24:43;;;;;;;15.13;2.33;;;17.40;99.90;;;;;;4927659;29;20054;-90
2023/09/30 10:27:22;;;;;;;7.68;1.70;;;17.60;99.90;;;;;;4941633;29;20067;-90
2023/09/30 10:30:17;;;;;;;8.35;2.00;;;17.60;99.90;;;;;;4950582;29;20044;-88
2023/09/30 10:32:50;;;;;;;6.43;1.70;;;17.70;99.90;;;;;;4940266;29;20555;-91
2023/09/30 10:35:18;;;;;;;7.90;1.33;;;17.60;99.90;;;;;;4958745;29;20066;-91
2023/09/30 10:37:45;;;;;;;8.07;2.00;;;17.60;99.90;;;;;;4949292;29;20129;-90
2023/09/30 10:40:29;;;;;;;6.38;1.70;;;17.60;99.90;;;;;;4943045;29;20086;-91
2023/09/30 10:43:00;;;;;;;5.25;1.60;;;17.50;99.90;;;;;;4955291;29;20121;-90
2023/09/30 10:45:45;;;;;;;9.90;1.70;;;17.50;99.90;;;;;;4953571;29;20055;-90
2023/09/30 10:48:41;;;;;;;8.43;1.58;;;17.40;99.90;;;;;;4950861;29;20101;-90
2023/09/30 10:51:21;;;;;;;8.73;1.77;;;17.20;99.90;;;;;;4949570;29;20572;-91
2023/09/30 10:53:56;;;;;;;7.25;1.83;;;17.20;99.90;;;;;;4938899;29;20050;-90
2023/09/30 10:56:23;;;;;;;6.72;1.60;;;17.20;99.90;;;;;;4962400;29;20036;-92
2023/09/30 10:58:52;;;;;;;9.98;1.90;;;17.20;99.90;;;;;;4960891;29;20511;-91
2023/09/30 11:01:21;;;;;;;11.45;1.70;;;17.30;99.90;;;;;;4966898;29;20036;-90
2023/09/30 11:03:51;;;;;;;10.88;2.25;;;17.50;99.90;;;;;;4937473;29;20032;-90
2023/09/30 11:06:20;;;;;;;9.15;2.50;;;17.60;99.90;;;;;;4957324;29;20090;-90
2023/09/30 11:08:56;;;;;;;7.82;1.73;;;17.80;99.90;;;;;;4951201;29;20039;-92
2023/09/30 11:11:32;;;;;;;;;;;17.80;99.90;;;;;;4949541;29;20055;-92
2023/09/30 11:13:59;;;;;;;7.15;1.50;;;17.90;99.90;;;;;;4966004;29;19927;-91
2023/09/30 11:16:25;;;;;;;12.05;2.00;;;18.00;99.90;;;;;;4959303;29;20046;-92
2023/09/30 11:18:55;;;;;;;10.30;2.40;;;18.10;99.90;;;;;;4940555;29;20503;-93
2023/09/30 11:21:29;;;;;;;7.57;1.63;;;18.10;99.90;;;;;;4954023;29;20044;-91
2023/09/30 11:23:56;;;;;;;7.55;1.52;;;18.00;99.90;;;;;;4959055;29;20035;-92
2023/09/30 11:26:32;;;;;;;13.13;1.65;;;18.00;99.90;;;;;;4956771;29;20107;-93
2023/09/30 11:29:11;;;;;;;7.20;2.00;;;18.10;99.90;;;;;;4944681;29;20068;-93
2023/09/30 11:31:39;;;;;;;7.88;1.70;;;18.30;99.90;;;;;;4956230;29;20389;-91
2023/09/30 11:34:07;;;;;;;6.65;1.65;;;18.40;99.90;;;;;;4955762;29;20051;-91
2023/09/30 11:36:47;;;;;;;10.68;1.60;;;18.50;99.90;;;;;;4956329;29;20145;-92
2023/09/30 11:39:31;;;;;;;9.57;2.22;;;18.70;99.90;;;;;;4956543;29;20102;-91
2023/09/30 11:41:58;;;;;;;8.82;2.20;;;18.80;99.90;;;;;;4972155;29;20050;-91
2023/09/30 11:44:30;;;;;;;10.00;1.98;;;19.00;99.90;;;;;;4955774;29;20554;-92
2023/09/30 11:47:05;;;;;;;6.50;1.45;;;19.00;99.90;;;;;;4946371;29;20465;-91
2023/09/30 11:49:40;;;;;;;6.30;1.60;;;18.90;99.90;;;;;;4965674;29;20074;-92
2023/09/30 11:52:08;;;;;;;7.22;1.73;;;19.00;99.90;;;;;;4949581;29;20066;-93
2023/09/30 11:54:40;;;;;;;7.07;1.65;;;19.10;99.90;;;;;;4945878;29;20090;-91
2023/09/30 11:57:11;;;;;;;8.32;1.27;;;19.10;99.90;;;;;;4958750;29;20060;-90
2023/09/30 11:59:41;;;;;;;6.13;1.60;;;19.00;99.90;;;;;;4959727;29;20043;-92
2023/09/30 12:02:11;;;;;;;8.07;1.60;;;19.10;99.90;;;;;;4944364;29;20095;-92
2023/09/30 12:04:38;;;;;;;6.25;1.58;;;19.00;99.90;;;;;;4962817;29;20103;-91
2023/09/30 12:07:08;;;;;;;9.32;2.38;;;19.00;99.90;;;;;;4955221;29;20094;-92
2023/09/30 12:09:37;;;;;;;7.55;1.55;;;19.10;99.90;;;;;;4962702;29;20051;-92
2023/09/30 12:12:04;;;;;;;7.18;1.63;;;18.90;99.90;;;;;;4946925;29;20070;-92
2023/09/30 12:14:31;;;;;;;7.03;1.65;;;18.80;99.90;;;;;;4959320;29;20031;-92
2023/09/30 12:16:58;;;;;;;4.78;1.30;;;18.70;99.90;;;;;;4955086;29;20067;-92
2023/09/30 12:19:26;;;;;;;6.25;1.40;;;18.70;99.90;;;;;;4968091;29;20444;-92
2023/09/30 12:21:52;;;;;;;9.27;1.90;;;18.70;99.90;;;;;;4948251;29;20043;-92
2023/09/30 12:24:21;;;;;;;6.53;1.55;;;18.60;99.90;;;;;;4956971;29;20106;-92
2023/09/30 12:26:49;;;;;;;9.73;2.08;;;18.50;99.90;;;;;;4959916;29;20051;-92
2023/09/30 12:29:17;;;;;;;7.65;1.40;;;18.30;99.90;;;;;;4952156;29;20103;-92
2023/09/30 12:31:45;;;;;;;7.07;1.60;;;18.30;99.90;;;;;;4971306;29;20424;-92
2023/09/30 12:34:12;;;;;;;6.78;1.55;;;18.10;99.90;;;;;;4964344;29;20055;-91
2023/09/30 12:36:39;;;;;;;5.40;1.60;;;18.00;99.90;;;;;;4944250;29;20098;-91
2023/09/30 12:39:10;;;;;;;4.63;1.40;;;18.00;99.90;;;;;;4961703;29;20040;-92
2023/09/30 12:41:41;;;;;;;8.52;1.88;;;18.00;99.90;;;;;;4952847;29;20377;-92
2023/09/30 12:44:08;;;;;;;5.38;1.40;;;18.00;99.90;;;;;;4974854;29;20047;-92
2023/09/30 12:46:36;;;;;;;7.78;1.73;;;17.90;99.90;;;;;;4955833;29;20403;-92
2023/09/30 12:49:04;;;;;;;8.73;1.75;;;17.90;99.90;;;;;;4967651;29;20069;-91
2023/09/30 12:51:32;;;;;;;6.70;1.65;;;17.80;99.90;;;;;;4958976;29;20047;-92